Waterville, ME

9:21 PM EDT on August 20, 2017 (GMT -0400)
Waterville Lafleur

Weather History for KWVL - January, 2013

Change the Weather History Date:

Thursday, January 31, 2013

  Actual Average Record
Temperature  
Mean Temperature 42 °F -  
Max Temperature 57 °F 31 °F 57 °F (2013)
Min Temperature 28 °F 9 °F -20 °F (1961)
Degree Days  
Heating Degree Days 22    
Moisture  
Dew Point 36 °F    
Average Humidity 74    
Maximum Humidity 100    
Minimum Humidity 37    
Precipitation  
Precipitation 0.34 in - - ()
Sea Level Pressure  
Sea Level Pressure 29.08 in    
Wind  
Wind Speed 14 mph (SW)    
Max Wind Speed 26 mph    
Max Gust Speed 40 mph    
Visibility 8 miles    
Events      
Averages and records for this station are not official NWS values.
T = Trace of Precipitation, MM = Missing Value Source: NWS Daily Summary

Daily Weather History Graph

Daily Weather History Graph

Search for Another Location

Airport or City:

Trip Planner

Search our weather history database for the weather conditions in past years. The results will help you decide how hot, cold, wet, or windy it might be!

Date:

Astronomy

Jan. 31, 2013 Rise Set
Actual Time 6:58 AM EST 4:46 PM EST
Civil Twilight 6:27 AM EST 5:17 PM EST
Nautical Twilight 5:52 AM EST 5:52 PM EST
Astronomical Twilight 5:18 AM EST 6:26 PM EST
Moon 10:00 PM EST (1/31) 8:42 AM EST (1/31)
Length of Visible Light 10h 50m
Length of Day
9h 48m
Waning Gibbous, 80% of the Moon is Illuminated
Jan 31
Waning Gibbous
Feb 3
Last Quarter
Feb 10
New
Feb 17
First Quarter
Feb 25
Full

Hourly Weather History & Observations

Time (EST) Temp. Windchill Dew Point Humidity Pressure Visibility Wind Dir Wind Speed Gust Speed Precip Events Conditions
12:15 AM 50.0 °F - 50.0 °F 100% 29.37 in 0.2 mi South 10.4 mph - N/A   Overcast
12:35 AM 51.8 °F - 50.0 °F 94% 29.35 in 0.5 mi South 9.2 mph 17.3 mph N/A   Overcast
12:55 AM 51.8 °F - 51.8 °F 100% 29.36 in 0.5 mi South 10.4 mph 16.1 mph N/A   Overcast
1:35 AM 51.8 °F - 50.0 °F 94% 29.32 in 0.8 mi South 8.1 mph - 0.01 in   Overcast
1:55 AM 51.8 °F - 51.8 °F 100% 29.32 in 1.8 mi South 8.1 mph - 0.01 in   Overcast
2:15 AM 51.8 °F - 51.8 °F 100% 29.28 in 2.5 mi South 8.1 mph 18.4 mph N/A   Overcast
2:35 AM 51.8 °F - 50.0 °F 94% 29.26 in 1.5 mi South 9.2 mph 16.1 mph N/A   Overcast
2:55 AM 53.6 °F - 53.6 °F 100% 29.23 in 3.0 mi South 11.5 mph 21.9 mph N/A   Overcast
3:15 AM 53.6 °F - 51.8 °F 94% 29.20 in 4.0 mi South 16.1 mph 29.9 mph 0.01 in   Overcast
3:35 AM 55.4 °F - 53.6 °F 94% 29.17 in 5.0 mi South 12.7 mph 24.2 mph 0.02 in   Overcast
3:55 AM 53.6 °F - 53.6 °F 100% 29.15 in 5.0 mi South 16.1 mph 29.9 mph 0.06 in   Overcast
4:15 AM 55.4 °F - 53.6 °F 94% 29.13 in 5.0 mi South 15.0 mph 27.6 mph N/A   Overcast
4:35 AM 55.4 °F - 53.6 °F 94% 29.10 in 5.0 mi South 15.0 mph 31.1 mph N/A   Overcast
5:15 AM 55.4 °F - 53.6 °F 94% 29.06 in 3.0 mi South 15.0 mph 32.2 mph N/A   Overcast
5:35 AM 53.6 °F - 53.6 °F 100% 29.04 in 5.0 mi South 10.4 mph 24.2 mph N/A   Overcast
5:55 AM 53.6 °F - 53.6 °F 100% 29.03 in 2.5 mi South 15.0 mph 28.8 mph N/A   Overcast
6:15 AM 53.6 °F - 51.8 °F 94% 29.02 in 3.0 mi South 15.0 mph 27.6 mph N/A   Overcast
6:35 AM 53.6 °F - 53.6 °F 100% 28.99 in 6.0 mi South 11.5 mph 26.5 mph N/A   Overcast
6:55 AM 53.6 °F - 53.6 °F 100% 28.96 in 8.0 mi South 12.7 mph 24.2 mph 0.09 in   Overcast
7:15 AM 55.4 °F - 53.6 °F 94% 28.93 in 7.0 mi South 19.6 mph 35.7 mph 0.04 in   Overcast
7:35 AM 55.4 °F - 55.4 °F 100% 28.89 in 4.0 mi South 17.3 mph 36.8 mph 0.07 in   Overcast
7:55 AM 55.4 °F - 55.4 °F 100% 28.88 in 4.0 mi South 17.3 mph 34.5 mph 0.10 in   Overcast
8:15 AM 57.2 °F - 55.4 °F 94% 28.88 in 5.0 mi South 18.4 mph 38.0 mph 0.03 in   Overcast
8:35 AM 55.4 °F - 53.6 °F 94% 28.88 in 9.0 mi SSW 19.6 mph 36.8 mph 0.04 in   Overcast
8:55 AM 55.4 °F - 53.6 °F 94% 28.87 in 10.0 mi South 13.8 mph 24.2 mph 0.04 in   Overcast
9:15 AM 55.4 °F - 53.6 °F 94% 28.86 in 8.0 mi South 11.5 mph 25.3 mph N/A   Overcast
9:35 AM 53.6 °F - 51.8 °F 94% 28.84 in 9.0 mi South 11.5 mph 18.4 mph N/A   Overcast
9:55 AM 53.6 °F - 53.6 °F 100% 28.80 in 10.0 mi South 9.2 mph 23.0 mph N/A   Overcast
10:15 AM 53.6 °F - 53.6 °F 100% 28.80 in 10.0 mi South 13.8 mph 24.2 mph N/A   Overcast
10:35 AM 55.4 °F - 53.6 °F 94% 28.78 in 10.0 mi South 12.7 mph 28.8 mph N/A   Overcast
10:55 AM 55.4 °F - 51.8 °F 88% 28.76 in 10.0 mi South 16.1 mph 33.4 mph N/A   Overcast
11:15 AM 55.4 °F - 51.8 °F 88% 28.76 in 10.0 mi SSW 17.3 mph 26.5 mph N/A   Overcast
11:35 AM 46.4 °F 38.7 °F 39.2 °F 76% 28.82 in 5.0 mi WNW 20.7 mph 39.1 mph 0.02 in   Overcast
11:55 AM 42.8 °F 35.8 °F 39.2 °F 87% 28.83 in 10.0 mi West 13.8 mph 25.3 mph 0.03 in   Mostly Cloudy
12:15 PM 42.8 °F 38.0 °F 39.2 °F 87% 28.84 in 10.0 mi West 8.1 mph - 0.01 in   Mostly Cloudy
12:35 PM 44.6 °F 39.7 °F 41.0 °F 87% 28.88 in 10.0 mi WSW 9.2 mph 19.6 mph 0.01 in   Mostly Cloudy
12:55 PM 44.6 °F 37.8 °F 39.2 °F 81% 28.91 in 10.0 mi West 15.0 mph 23.0 mph 0.01 in   Overcast
1:15 PM 44.6 °F 36.9 °F 35.6 °F 71% 28.93 in 10.0 mi West 18.4 mph 26.5 mph N/A   Mostly Cloudy
1:35 PM 44.6 °F 38.1 °F 35.6 °F 71% 28.94 in 10.0 mi West 13.8 mph 23.0 mph N/A   Mostly Cloudy
1:55 PM 39.2 °F 28.5 °F 32.0 °F 75% 28.98 in 8.0 mi West 24.2 mph 40.3 mph N/A   Mostly Cloudy
2:15 PM 39.2 °F 30.8 °F 33.8 °F 81% 28.99 in 10.0 mi West 15.0 mph 24.2 mph N/A   Scattered Clouds
2:35 PM 41.0 °F 31.6 °F 32.0 °F 70% 29.00 in 10.0 mi West 20.7 mph 29.9 mph N/A   Clear
2:55 PM 42.8 °F 35.8 °F 28.4 °F 57% 29.02 in 10.0 mi West 13.8 mph 33.4 mph N/A   Clear
3:15 PM 41.0 °F 32.8 °F 26.6 °F 57% 29.03 in 10.0 mi West 16.1 mph 25.3 mph N/A   Partly Cloudy
3:35 PM 42.8 °F 34.5 °F 24.8 °F 49% 29.05 in 10.0 mi West 18.4 mph 25.3 mph N/A   Mostly Cloudy
3:55 PM 41.0 °F 33.9 °F 21.2 °F 45% 29.06 in 10.0 mi West 12.7 mph 29.9 mph N/A   Mostly Cloudy
4:15 PM 39.2 °F 31.6 °F 21.2 °F 49% 29.07 in 10.0 mi West 12.7 mph 21.9 mph N/A   Mostly Cloudy
4:35 PM 39.2 °F 31.6 °F 21.2 °F 49% 29.08 in 10.0 mi West 12.7 mph 25.3 mph N/A   Overcast
4:55 PM 39.2 °F 32.0 °F 21.2 °F 49% 29.10 in 10.0 mi WSW 11.5 mph 20.7 mph N/A   Mostly Cloudy
5:15 PM 37.4 °F 28.2 °F 19.4 °F 48% 29.12 in 10.0 mi West 16.1 mph 27.6 mph N/A   Mostly Cloudy
5:35 PM 37.4 °F 27.8 °F 15.8 °F 41% 29.15 in 10.0 mi West 17.3 mph 29.9 mph N/A   Mostly Cloudy
5:55 PM 37.4 °F 26.9 °F 15.8 °F 41% 29.17 in 10.0 mi WSW 20.7 mph 29.9 mph N/A   Mostly Cloudy
6:15 PM 35.6 °F 24.5 °F 14.0 °F 41% 29.18 in 10.0 mi WSW 20.7 mph 29.9 mph N/A   Scattered Clouds
6:55 PM 35.6 °F 25.9 °F 12.2 °F 38% 29.20 in 10.0 mi WSW 16.1 mph 26.5 mph N/A   Mostly Cloudy
7:15 PM 35.6 °F 27.1 °F 12.2 °F 38% 29.20 in 10.0 mi WSW 12.7 mph 27.6 mph N/A   Overcast
7:35 PM 35.6 °F 26.6 °F 12.2 °F 38% 29.21 in 10.0 mi WSW 13.8 mph - N/A   Overcast
7:55 PM 35.6 °F 24.8 °F 12.2 °F 38% 29.23 in 10.0 mi West 19.6 mph 31.1 mph N/A   Overcast
8:15 PM 33.8 °F 23.9 °F 12.2 °F 41% 29.24 in 10.0 mi WSW 15.0 mph 20.7 mph N/A   Overcast
8:35 PM 33.8 °F 22.5 °F 12.2 °F 41% 29.24 in 10.0 mi WSW 19.6 mph 28.8 mph N/A   Overcast
8:55 PM 33.8 °F 21.0 °F 12.2 °F 41% 29.27 in 10.0 mi WSW 25.3 mph 33.4 mph N/A   Mostly Cloudy
9:15 PM 30.2 °F 18.1 °F 12.2 °F 47% 29.28 in 10.0 mi West 18.4 mph 27.6 mph N/A   Scattered Clouds
9:55 PM 30.2 °F 18.9 °F 12.2 °F 47% 29.29 in 10.0 mi WSW 16.1 mph 24.2 mph N/A   Clear
10:15 PM 30.2 °F 17.4 °F 10.4 °F 44% 29.31 in 10.0 mi WSW 20.7 mph 35.7 mph N/A   Scattered Clouds
10:35 PM 30.2 °F 17.8 °F 8.6 °F 40% 29.32 in 10.0 mi WSW 19.6 mph 34.5 mph N/A   Scattered Clouds
10:55 PM 30.2 °F 19.3 °F 6.8 °F 37% 29.33 in 10.0 mi West 15.0 mph 28.8 mph N/A   Partly Cloudy
11:15 PM 30.2 °F 18.1 °F 6.8 °F 37% 29.34 in 10.0 mi WSW 18.4 mph 26.5 mph N/A   Mostly Cloudy
11:35 PM 28.4 °F 20.4 °F 8.6 °F 43% 29.35 in 10.0 mi WNW 8.1 mph 17.3 mph N/A   Overcast
11:55 PM 28.4 °F 13.5 °F 8.6 °F 43% 29.37 in 10.0 mi West 26.5 mph 34.5 mph N/A   Partly Cloudy